createdAt,value
2023-03-22T00:11:26.921Z,5.70
2023-03-22T00:26:29.535Z,5.53
2023-03-22T00:41:32.308Z,4.93
2023-03-22T00:56:37.488Z,4.37
2023-03-22T01:11:47.346Z,4.60
2023-03-22T01:26:50.257Z,4.60
2023-03-22T01:41:53.428Z,3.17
2023-03-22T01:56:56.617Z,3.60
2023-03-22T02:12:23.192Z,3.27
2023-03-22T02:27:39.029Z,3.23
2023-03-22T02:42:53.664Z,3.27
2023-03-22T02:58:38.166Z,3.10
2023-03-22T03:13:41.885Z,3.10
2023-03-22T03:28:51.744Z,2.80
2023-03-22T03:43:58.348Z,3.20
2023-03-22T03:59:01.865Z,3.93
2023-03-22T04:14:04.725Z,3.83
2023-03-22T04:29:07.512Z,4.03
2023-03-22T04:44:13.507Z,4.47
2023-03-22T04:59:23.425Z,9.80
2023-03-22T05:14:26.253Z,8.47
2023-03-22T05:29:29.334Z,7.17
2023-03-22T05:44:41.281Z,4.43
2023-03-22T05:59:47.919Z,2.17
2023-03-22T06:14:59.676Z,2.17
2023-03-22T06:30:11.648Z,1.67
2023-03-22T06:45:33.499Z,1.70
2023-03-22T07:00:38.895Z,1.93
2023-03-22T07:15:43.601Z,1.50
2023-03-22T07:31:11.392Z,1.43
2023-03-22T07:46:35.350Z,1.37
2023-03-22T08:01:52.621Z,1.70
2023-03-22T08:17:04.225Z,1.17
2023-03-22T08:32:07.939Z,1.30
2023-03-22T08:47:11.236Z,1.10
2023-03-22T09:02:16.739Z,1.60
2023-03-22T09:17:22.422Z,1.80
2023-03-22T09:32:26.360Z,1.40
2023-03-22T09:47:44.724Z,1.30
2023-03-22T10:03:05.180Z,1.37
2023-03-22T10:18:36.922Z,1.50
2023-03-22T10:33:55.197Z,1.60
2023-03-22T10:49:00.097Z,1.60
2023-03-22T11:04:14.914Z,1.87
2023-03-22T11:19:27.579Z,1.43
2023-03-22T11:34:40.012Z,1.40
2023-03-22T11:49:48.564Z,1.10
2023-03-22T12:05:01.662Z,1.60
2023-03-22T12:20:37.381Z,1.37
2023-03-22T12:35:45.079Z,1.90
2023-03-22T12:51:00.489Z,1.47
2023-03-22T13:06:27.924Z,1.40
2023-03-22T13:21:33.323Z,1.40
2023-03-22T13:36:37.345Z,1.23
2023-03-22T13:51:41.871Z,1.30
2023-03-22T14:06:53.567Z,1.43
